createdAt,value
2023-05-21T00:00:22.257Z,100.00
2023-05-21T00:02:48.935Z,100.00
2023-05-21T00:05:17.139Z,100.00
2023-05-21T00:07:44.394Z,100.00
2023-05-21T00:10:11.075Z,100.00
2023-05-21T00:12:37.532Z,100.00
2023-05-21T00:15:04.608Z,100.00
2023-05-21T00:17:31.068Z,100.00
2023-05-21T00:19:57.592Z,100.00
2023-05-21T00:22:24.125Z,100.00
2023-05-21T00:24:50.717Z,100.00
2023-05-21T00:27:17.461Z,100.00
2023-05-21T00:29:44.466Z,100.00
2023-05-21T00:32:11.186Z,100.00
2023-05-21T00:34:38.293Z,100.00
2023-05-21T00:37:05.000Z,100.00
2023-05-21T00:39:31.482Z,100.00
2023-05-21T00:41:57.986Z,100.00
2023-05-21T00:44:25.492Z,100.00
2023-05-21T00:46:53.862Z,100.00
2023-05-21T00:49:24.549Z,100.00
2023-05-21T00:51:51.944Z,100.00
2023-05-21T00:54:18.973Z,100.00
2023-05-21T00:56:46.628Z,100.00
2023-05-21T00:59:15.829Z,100.00
2023-05-21T01:01:45.501Z,100.00
2023-05-21T01:04:12.516Z,100.00
2023-05-21T01:06:39.018Z,100.00
2023-05-21T01:09:07.173Z,100.00
2023-05-21T01:11:43.675Z,100.00
2023-05-21T01:14:12.671Z,100.00
2023-05-21T01:16:42.392Z,100.00
2023-05-21T01:19:11.587Z,100.00
2023-05-21T01:21:44.865Z,100.00
2023-05-21T01:26:54.997Z,100.00
2023-05-21T01:29:21.781Z,100.00
2023-05-21T01:32:18.129Z,100.00
2023-05-21T01:34:58.255Z,100.00
2023-05-21T01:37:30.025Z,100.00
2023-05-21T01:40:03.891Z,100.00
2023-05-21T01:42:32.064Z,100.00
2023-05-21T01:45:00.651Z,100.00
2023-05-21T01:47:31.312Z,100.00
2023-05-21T01:49:59.683Z,100.00
2023-05-21T01:52:26.243Z,100.00
2023-05-21T01:54:54.372Z,100.00
2023-05-21T01:57:21.651Z,100.00
2023-05-21T01:59:48.167Z,100.00
2023-05-21T02:02:14.676Z,100.00
2023-05-21T02:04:41.382Z,100.00
2023-05-21T02:07:08.087Z,100.00
2023-05-21T02:09:34.597Z,100.00
2023-05-21T02:12:01.283Z,100.00
2023-05-21T02:14:27.707Z,100.00
2023-05-21T02:16:54.145Z,100.00
2023-05-21T02:19:20.702Z,100.00
2023-05-21T02:21:47.245Z,100.00
2023-05-21T02:24:14.064Z,100.00
2023-05-21T02:26:41.007Z,100.00
2023-05-21T02:29:07.438Z,100.00
2023-05-21T02:31:33.871Z,100.00
2023-05-21T02:34:00.911Z,100.00
2023-05-21T02:36:28.801Z,100.00
2023-05-21T02:38:57.924Z,100.00
2023-05-21T02:41:24.460Z,100.00
2023-05-21T02:43:51.134Z,100.00
2023-05-21T02:46:17.657Z,100.00
2023-05-21T02:48:44.123Z,100.00
2023-05-21T02:51:10.696Z,100.00
2023-05-21T02:53:37.133Z,100.00
2023-05-21T02:56:03.872Z,100.00
2023-05-21T02:58:30.827Z,100.00
2023-05-21T03:00:57.370Z,100.00
2023-05-21T03:03:24.017Z,100.00
2023-05-21T03:05:50.507Z,100.00
2023-05-21T03:08:17.032Z,100.00
2023-05-21T03:10:43.470Z,100.00
2023-05-21T03:13:10.117Z,100.00
2023-05-21T03:15:38.796Z,100.00
2023-05-21T03:18:05.444Z,100.00
2023-05-21T03:20:32.682Z,100.00
2023-05-21T03:23:00.460Z,100.00
2023-05-21T03:25:26.928Z,100.00
2023-05-21T03:27:53.426Z,100.00
2023-05-21T03:30:19.962Z,100.00
2023-05-21T03:32:47.685Z,100.00
2023-05-21T03:35:14.199Z,100.00
2023-05-21T03:37:40.630Z,100.00
2023-05-21T03:40:07.925Z,100.00
2023-05-21T03:42:34.501Z,100.00
2023-05-21T03:45:01.078Z,100.00
2023-05-21T03:47:27.598Z,100.00
2023-05-21T03:49:54.103Z,100.00
2023-05-21T03:52:20.740Z,100.00
2023-05-21T03:54:47.201Z,100.00
2023-05-21T03:57:13.669Z,100.00
2023-05-21T03:59:40.094Z,100.00
2023-05-21T04:02:06.554Z,100.00
2023-05-21T04:04:33.815Z,100.00
2023-05-21T04:07:00.932Z,100.00
2023-05-21T04:09:29.582Z,100.00
2023-05-21T04:11:56.078Z,100.00
2023-05-21T04:14:23.356Z,100.00
2023-05-21T04:16:49.919Z,100.00
2023-05-21T04:19:16.433Z,100.00
2023-05-21T04:21:44.932Z,100.00
2023-05-21T04:24:11.684Z,100.00
2023-05-21T04:26:38.214Z,100.00
2023-05-21T04:29:04.955Z,100.00
2023-05-21T04:31:32.501Z,100.00
2023-05-21T04:33:59.489Z,100.00
2023-05-21T04:36:29.027Z,100.00
2023-05-21T04:38:55.845Z,100.00
2023-05-21T04:41:22.394Z,100.00
2023-05-21T04:43:48.872Z,100.00
2023-05-21T04:46:15.441Z,100.00
2023-05-21T04:48:42.279Z,100.00
2023-05-21T04:51:08.875Z,100.00
2023-05-21T04:53:35.919Z,100.00
2023-05-21T04:56:03.150Z,100.00
2023-05-21T04:58:29.604Z,100.00
2023-05-21T05:00:56.087Z,100.00
2023-05-21T05:03:22.713Z,100.00
2023-05-21T05:05:49.229Z,100.00
2023-05-21T05:08:16.315Z,100.00
2023-05-21T05:10:42.913Z,100.00
2023-05-21T05:13:09.846Z,100.00
2023-05-21T05:15:36.681Z,100.00
2023-05-21T05:18:03.569Z,100.00
2023-05-21T05:20:30.053Z,100.00
2023-05-21T05:22:56.512Z,100.00
2023-05-21T05:25:23.631Z,100.00
2023-05-21T05:27:50.097Z,100.00
2023-05-21T05:30:17.030Z,100.00
2023-05-21T05:32:43.499Z,100.00
2023-05-21T05:35:10.391Z,100.00
2023-05-21T05:37:36.894Z,100.00
2023-05-21T05:40:04.583Z,100.00
2023-05-21T05:42:31.362Z,100.00
2023-05-21T05:44:57.848Z,100.00
2023-05-21T05:47:24.301Z,100.00
2023-05-21T05:49:51.243Z,100.00
2023-05-21T05:52:17.790Z,100.00
2023-05-21T05:54:44.205Z,100.00
2023-05-21T05:57:10.753Z,100.00
2023-05-21T05:59:37.228Z,100.00
2023-05-21T06:02:04.034Z,100.00
2023-05-21T06:04:30.603Z,100.00
2023-05-21T06:07:00.906Z,100.00
2023-05-21T06:09:30.422Z,100.00
2023-05-21T06:11:57.009Z,100.00
2023-05-21T06:14:23.477Z,100.00
2023-05-21T06:16:49.979Z,100.00
2023-05-21T06:19:16.480Z,100.00
2023-05-21T06:21:43.043Z,100.00
2023-05-21T06:24:09.485Z,100.00
2023-05-21T06:26:36.225Z,100.00
2023-05-21T06:29:03.824Z,100.00
2023-05-21T06:31:33.020Z,100.00
2023-05-21T06:36:29.810Z,100.00
2023-05-21T06:38:57.111Z,100.00
2023-05-21T06:41:23.789Z,100.00
2023-05-21T06:43:50.233Z,100.00
2023-05-21T06:46:16.711Z,100.00
2023-05-21T06:48:44.177Z,100.00
2023-05-21T06:51:10.636Z,100.00
2023-05-21T06:53:37.100Z,100.00
2023-05-21T06:56:03.724Z,100.00
2023-05-21T06:58:31.348Z,100.00
2023-05-21T07:00:59.005Z,100.00
2023-05-21T07:03:25.899Z,100.00
2023-05-21T07:05:53.182Z,100.00
2023-05-21T07:08:22.300Z,100.00
2023-05-21T07:10:49.768Z,100.00
2023-05-21T07:13:16.411Z,100.00
2023-05-21T07:15:42.882Z,100.00
2023-05-21T07:18:09.820Z,100.00
2023-05-21T07:20:36.388Z,100.00
2023-05-21T07:23:02.847Z,100.00
2023-05-21T07:25:29.267Z,100.00
2023-05-21T07:27:55.795Z,100.00
2023-05-21T07:30:22.438Z,100.00
2023-05-21T07:32:48.969Z,100.00
2023-05-21T07:35:15.564Z,100.00
2023-05-21T07:37:42.199Z,100.00
2023-05-21T07:40:09.079Z,100.00
2023-05-21T07:42:35.527Z,100.00
2023-05-21T07:45:02.392Z,100.00
2023-05-21T07:47:28.832Z,100.00
2023-05-21T07:49:55.458Z,100.00
2023-05-21T07:52:22.018Z,100.00
2023-05-21T07:54:48.525Z,100.00
2023-05-21T07:57:14.966Z,100.00
2023-05-21T07:59:41.431Z,100.00
2023-05-21T08:02:07.965Z,100.00
2023-05-21T08:04:34.551Z,100.00
2023-05-21T08:07:01.000Z,100.00
2023-05-21T08:09:27.445Z,100.00
2023-05-21T08:11:53.871Z,100.00
2023-05-21T08:14:20.374Z,100.00
2023-05-21T08:16:46.910Z,100.00
2023-05-21T08:19:13.513Z,100.00
2023-05-21T08:21:39.988Z,100.00
2023-05-21T08:24:07.077Z,100.00
2023-05-21T08:26:33.817Z,100.00
2023-05-21T08:29:00.731Z,100.00
2023-05-21T08:31:27.305Z,100.00
2023-05-21T08:33:56.318Z,100.00
2023-05-21T08:36:22.859Z,100.00
2023-05-21T08:38:49.302Z,100.00
2023-05-21T08:41:16.742Z,100.00
2023-05-21T08:43:48.051Z,100.00
2023-05-21T08:46:18.949Z,100.00
2023-05-21T08:48:47.052Z,100.00
2023-05-21T08:51:13.747Z,100.00
2023-05-21T08:53:40.461Z,100.00
2023-05-21T08:56:07.015Z,100.00
2023-05-21T08:58:33.925Z,100.00
2023-05-21T09:01:00.623Z,100.00
2023-05-21T09:03:29.224Z,100.00
2023-05-21T09:05:56.674Z,100.00
2023-05-21T09:08:29.563Z,100.00
2023-05-21T09:10:56.078Z,100.00
2023-05-21T09:13:25.477Z,100.00
2023-05-21T09:15:52.106Z,100.00
2023-05-21T09:18:18.562Z,100.00
2023-05-21T09:20:45.690Z,100.00
2023-05-21T09:23:16.770Z,100.00
2023-05-21T09:25:47.852Z,100.00
2023-05-21T09:28:16.108Z,100.00
2023-05-21T09:30:51.994Z,100.00
2023-05-21T09:33:31.618Z,100.00
2023-05-21T09:35:58.300Z,100.00
2023-05-21T09:38:26.206Z,100.00
2023-05-21T09:40:55.750Z,100.00
2023-05-21T09:43:22.287Z,100.00
2023-05-21T09:45:53.856Z,100.00
2023-05-21T09:48:56.153Z,100.00
2023-05-21T09:51:22.637Z,100.00
2023-05-21T09:53:53.492Z,100.00
2023-05-21T09:56:24.830Z,100.00
2023-05-21T09:58:54.700Z,100.00
2023-05-21T10:01:21.561Z,100.00
2023-05-21T10:03:53.923Z,100.00
2023-05-21T10:06:21.069Z,100.00
2023-05-21T10:08:51.920Z,100.00
2023-05-21T10:11:19.351Z,100.00
2023-05-21T10:13:52.999Z,100.00
2023-05-21T10:16:19.798Z,100.00
2023-05-21T10:18:47.121Z,100.00
2023-05-21T10:21:14.029Z,100.00
2023-05-21T10:23:42.705Z,100.00
2023-05-21T10:26:09.248Z,100.00
2023-05-21T10:28:36.770Z,100.00
2023-05-21T10:31:04.499Z,100.00
2023-05-21T10:33:32.082Z,100.00
2023-05-21T10:35:59.793Z,100.00
2023-05-21T10:38:27.837Z,100.00
2023-05-21T10:40:55.761Z,100.00
2023-05-21T10:43:38.035Z,100.00
2023-05-21T10:46:19.788Z,100.00
2023-05-21T10:49:13.923Z,100.00
2023-05-21T10:52:17.620Z,97.99
2023-05-21T10:54:54.341Z,98.50
2023-05-21T10:57:51.558Z,98.10
2023-05-21T11:00:21.109Z,100.00
2023-05-21T11:02:49.525Z,99.01
2023-05-21T11:05:16.015Z,97.57
2023-05-21T11:07:57.868Z,93.65
2023-05-21T11:10:30.133Z,92.88
2023-05-21T11:13:07.134Z,91.37
2023-05-21T11:16:05.126Z,88.99
2023-05-21T11:18:40.256Z,91.17
2023-05-21T11:21:10.199Z,91.34
2023-05-21T11:23:54.382Z,83.97
2023-05-21T11:26:26.227Z,86.19
2023-05-21T11:29:04.967Z,77.84
2023-05-21T11:31:39.343Z,83.24
2023-05-21T11:34:28.125Z,81.48
2023-05-21T11:37:16.100Z,78.21
2023-05-21T11:39:43.377Z,78.36
2023-05-21T11:42:10.048Z,77.86
2023-05-21T11:44:40.104Z,76.28
2023-05-21T11:47:07.992Z,77.56
2023-05-21T11:49:35.430Z,77.28
2023-05-21T11:52:03.019Z,77.26
2023-05-21T11:54:36.898Z,74.22
2023-05-21T11:57:07.257Z,72.25
2023-05-21T11:59:35.014Z,73.15
2023-05-21T12:02:02.267Z,73.16
2023-05-21T12:04:36.512Z,71.21
2023-05-21T12:07:09.746Z,70.40
2023-05-21T12:09:40.027Z,71.28
2023-05-21T12:12:09.406Z,72.17
2023-05-21T12:14:36.596Z,72.09
2023-05-21T12:17:04.465Z,72.11
2023-05-21T12:19:34.859Z,70.07
2023-05-21T12:22:05.434Z,72.23
2023-05-21T12:24:32.630Z,71.63
2023-05-21T12:27:03.759Z,71.99
2023-05-21T12:29:31.957Z,73.02
2023-05-21T12:32:02.765Z,71.58
2023-05-21T12:34:39.405Z,70.41
2023-05-21T12:37:07.896Z,70.60
2023-05-21T12:39:39.184Z,69.51
2023-05-21T12:42:07.002Z,69.50
2023-05-21T12:44:35.372Z,67.92
2023-05-21T12:47:03.561Z,67.43
2023-05-21T12:49:39.027Z,67.39
2023-05-21T12:52:09.255Z,66.78
2023-05-21T12:54:38.291Z,66.17
2023-05-21T12:57:08.739Z,66.97
2023-05-21T13:00:08.887Z,65.55
2023-05-21T13:02:40.018Z,67.45
2023-05-21T13:05:11.339Z,68.29
2023-05-21T13:07:39.561Z,68.33
2023-05-21T13:10:06.968Z,67.13
2023-05-21T13:12:34.309Z,66.49
2023-05-21T13:15:03.328Z,64.96
2023-05-21T13:17:29.831Z,63.67
2023-05-21T13:20:08.188Z,61.05
2023-05-21T13:22:36.738Z,63.16
2023-05-21T13:25:03.375Z,62.46
2023-05-21T13:27:29.844Z,62.06
2023-05-21T13:29:56.503Z,61.01
2023-05-21T13:32:23.120Z,60.84
2023-05-21T13:34:49.684Z,59.81
2023-05-21T13:37:16.184Z,60.34
2023-05-21T13:39:42.619Z,60.14
2023-05-21T13:42:09.126Z,60.07
2023-05-21T13:44:36.615Z,59.53
2023-05-21T13:47:04.128Z,59.64
2023-05-21T13:49:30.712Z,59.68
2023-05-21T13:51:58.186Z,59.49
2023-05-21T13:54:24.614Z,58.15
2023-05-21T13:56:51.146Z,57.29
2023-05-21T13:59:17.670Z,57.74
2023-05-21T14:01:48.053Z,57.45
2023-05-21T14:04:14.606Z,54.87
2023-05-21T14:06:41.195Z,53.85
2023-05-21T14:09:08.037Z,54.33
2023-05-21T14:11:35.082Z,53.85
2023-05-21T14:14:02.859Z,53.46
2023-05-21T14:16:29.354Z,53.73
2023-05-21T14:18:57.269Z,53.79
2023-05-21T14:21:24.406Z,53.97
2023-05-21T14:23:51.447Z,54.20
2023-05-21T14:26:18.196Z,53.80
2023-05-21T14:28:45.310Z,53.48
2023-05-21T14:31:12.433Z,53.67
2023-05-21T14:33:39.001Z,53.04
2023-05-21T14:36:05.772Z,52.69
2023-05-21T14:38:32.319Z,52.11
2023-05-21T14:40:58.814Z,52.21
2023-05-21T14:43:25.283Z,52.56
2023-05-21T14:45:51.850Z,53.81
2023-05-21T14:48:22.654Z,52.87
2023-05-21T14:50:51.103Z,51.82
2023-05-21T14:53:18.574Z,51.71
2023-05-21T14:55:45.731Z,51.71
2023-05-21T14:58:12.317Z,52.50
2023-05-21T15:00:38.832Z,51.50
2023-05-21T15:03:05.692Z,51.81
2023-05-21T15:05:32.314Z,52.06
2023-05-21T15:07:59.006Z,51.55
2023-05-21T15:10:27.022Z,51.13
2023-05-21T15:12:53.889Z,51.22
2023-05-21T15:15:23.263Z,51.99
2023-05-21T15:17:50.660Z,51.43
2023-05-21T15:20:17.812Z,51.15
2023-05-21T15:22:44.272Z,51.98
2023-05-21T15:25:10.810Z,51.45
2023-05-21T15:27:37.234Z,51.99
2023-05-21T15:30:04.740Z,52.41
2023-05-21T15:32:31.649Z,53.14
2023-05-21T15:34:58.201Z,53.30
2023-05-21T15:37:24.857Z,53.89
2023-05-21T15:39:51.416Z,53.51
2023-05-21T15:42:17.863Z,53.56
2023-05-21T15:44:44.371Z,53.74
2023-05-21T15:47:10.854Z,52.90
2023-05-21T15:49:37.349Z,52.92
2023-05-21T15:52:04.053Z,50.97
2023-05-21T15:54:30.639Z,50.47
2023-05-21T15:56:57.220Z,49.75
2023-05-21T15:59:25.646Z,48.76
2023-05-21T16:01:52.289Z,48.40
2023-05-21T16:04:21.507Z,47.84
2023-05-21T16:06:47.939Z,48.04
2023-05-21T16:09:17.348Z,47.67
2023-05-21T16:11:44.782Z,47.24
2023-05-21T16:14:12.361Z,46.75
2023-05-21T16:16:39.391Z,46.86
2023-05-21T16:19:06.254Z,46.89
2023-05-21T16:21:33.799Z,47.27
2023-05-21T16:24:00.559Z,47.96
2023-05-21T16:26:27.084Z,47.16
2023-05-21T16:28:53.570Z,47.23
2023-05-21T16:31:20.045Z,47.45
2023-05-21T16:33:46.486Z,46.63
2023-05-21T16:36:13.124Z,47.03
2023-05-21T16:38:39.804Z,47.28
2023-05-21T16:41:06.739Z,47.67
2023-05-21T16:43:33.213Z,47.94
2023-05-21T16:45:59.792Z,48.47
2023-05-21T16:48:26.328Z,49.06
2023-05-21T16:50:52.820Z,50.36
2023-05-21T16:53:19.361Z,51.13
2023-05-21T16:55:45.845Z,52.33
2023-05-21T16:58:13.588Z,53.13
2023-05-21T17:00:40.096Z,53.83
2023-05-21T17:03:06.780Z,55.14
2023-05-21T17:05:33.375Z,56.31
2023-05-21T17:07:59.888Z,57.34
2023-05-21T17:10:26.350Z,58.97
2023-05-21T17:12:52.820Z,60.18
2023-05-21T17:15:19.250Z,60.67
2023-05-21T17:17:45.832Z,62.25
2023-05-21T17:20:12.890Z,63.46
2023-05-21T17:22:39.379Z,64.08
2023-05-21T17:25:06.467Z,65.28
2023-05-21T17:27:32.970Z,65.90
2023-05-21T17:29:59.540Z,67.05
2023-05-21T17:32:26.018Z,67.52
2023-05-21T17:34:53.789Z,69.46
2023-05-21T17:37:20.267Z,69.52
2023-05-21T17:39:46.774Z,70.52
2023-05-21T17:42:13.260Z,71.76
2023-05-21T17:44:39.770Z,72.35
2023-05-21T17:47:06.854Z,72.53
2023-05-21T17:49:33.425Z,72.88
2023-05-21T17:52:00.690Z,73.41
2023-05-21T17:54:27.119Z,74.39
2023-05-21T17:56:53.554Z,74.58
2023-05-21T17:59:21.355Z,75.49
2023-05-21T18:01:47.825Z,76.12
2023-05-21T18:04:14.356Z,75.52
2023-05-21T18:06:40.870Z,74.54
2023-05-21T18:09:07.937Z,74.19
2023-05-21T18:11:34.600Z,73.32
2023-05-21T18:14:01.026Z,73.56
2023-05-21T18:16:30.173Z,73.40
2023-05-21T18:18:57.270Z,73.69
2023-05-21T18:21:26.111Z,73.79
2023-05-21T18:23:52.542Z,74.11
2023-05-21T18:26:20.469Z,74.30
2023-05-21T18:28:47.024Z,74.83
2023-05-21T18:31:13.481Z,75.64
2023-05-21T18:33:40.233Z,76.24
2023-05-21T18:36:06.876Z,76.35
2023-05-21T18:38:33.736Z,76.91
2023-05-21T18:41:01.589Z,77.28
2023-05-21T18:43:28.058Z,77.39
2023-05-21T18:45:54.576Z,78.31
2023-05-21T18:48:20.979Z,78.81
2023-05-21T18:50:47.408Z,79.21
2023-05-21T18:53:13.818Z,79.84
2023-05-21T18:55:40.265Z,80.44
2023-05-21T18:58:06.729Z,81.65
2023-05-21T19:00:34.591Z,82.52
2023-05-21T19:03:02.179Z,83.31
2023-05-21T19:05:29.443Z,85.71
2023-05-21T19:07:57.910Z,86.34
2023-05-21T19:10:25.730Z,87.21
2023-05-21T19:12:52.487Z,88.34
2023-05-21T19:15:18.946Z,88.66
2023-05-21T19:17:45.490Z,90.17
2023-05-21T19:20:22.853Z,91.97
2023-05-21T19:22:49.463Z,92.05
2023-05-21T19:25:15.995Z,93.98
2023-05-21T19:27:42.483Z,94.25
2023-05-21T19:30:09.501Z,95.27
2023-05-21T19:32:36.037Z,95.56
2023-05-21T19:35:04.564Z,97.52
2023-05-21T19:37:31.250Z,98.86
2023-05-21T19:39:57.742Z,100.00
2023-05-21T19:42:24.247Z,100.00
2023-05-21T19:44:50.791Z,100.00
2023-05-21T19:47:17.351Z,100.00
2023-05-21T19:49:43.852Z,100.00
2023-05-21T19:52:10.506Z,100.00
2023-05-21T19:54:36.963Z,100.00
2023-05-21T19:57:03.512Z,100.00
2023-05-21T19:59:29.988Z,100.00
2023-05-21T20:01:56.514Z,100.00
2023-05-21T20:04:23.082Z,100.00
2023-05-21T20:06:49.717Z,100.00
2023-05-21T20:09:17.987Z,100.00
2023-05-21T20:11:44.757Z,100.00
2023-05-21T20:14:11.356Z,100.00
2023-05-21T20:16:37.990Z,100.00
2023-05-21T20:19:04.581Z,100.00
2023-05-21T20:21:34.183Z,100.00
2023-05-21T20:24:00.692Z,100.00
2023-05-21T20:26:27.275Z,100.00
2023-05-21T20:28:54.099Z,100.00
2023-05-21T20:31:21.838Z,100.00
2023-05-21T20:33:50.421Z,100.00
2023-05-21T20:36:17.728Z,100.00
2023-05-21T20:38:45.397Z,100.00
2023-05-21T20:41:12.315Z,100.00
2023-05-21T20:43:39.021Z,100.00
2023-05-21T20:46:05.810Z,100.00
2023-05-21T20:48:32.456Z,100.00
2023-05-21T20:50:59.878Z,100.00
2023-05-21T20:53:26.791Z,100.00
2023-05-21T20:55:54.674Z,100.00
2023-05-21T20:58:23.778Z,100.00
2023-05-21T21:00:50.390Z,100.00
2023-05-21T21:03:18.034Z,100.00
2023-05-21T21:05:44.928Z,100.00
2023-05-21T21:08:12.244Z,100.00
2023-05-21T21:10:41.245Z,100.00
2023-05-21T21:13:08.242Z,100.00
2023-05-21T21:15:35.161Z,100.00
2023-05-21T21:18:01.773Z,100.00
2023-05-21T21:20:28.276Z,100.00
2023-05-21T21:22:54.803Z,100.00
2023-05-21T21:25:21.511Z,100.00
2023-05-21T21:27:47.945Z,100.00
2023-05-21T21:30:14.524Z,100.00
2023-05-21T21:32:41.238Z,100.00
2023-05-21T21:35:08.028Z,100.00
2023-05-21T21:37:34.601Z,100.00
2023-05-21T21:40:01.006Z,100.00
2023-05-21T21:42:27.577Z,100.00
2023-05-21T21:44:54.022Z,100.00
2023-05-21T21:47:20.593Z,100.00
2023-05-21T21:49:48.026Z,100.00
2023-05-21T21:52:14.677Z,100.00
2023-05-21T21:54:41.238Z,100.00
2023-05-21T21:57:07.832Z,100.00
2023-05-21T21:59:34.577Z,100.00
2023-05-21T22:02:01.212Z,100.00
2023-05-21T22:04:27.916Z,100.00
2023-05-21T22:06:54.486Z,100.00
2023-05-21T22:09:22.529Z,100.00
2023-05-21T22:11:49.303Z,100.00
2023-05-21T22:14:15.908Z,100.00
2023-05-21T22:16:43.191Z,100.00
2023-05-21T22:19:10.165Z,100.00
2023-05-21T22:21:36.833Z,100.00
2023-05-21T22:24:04.034Z,100.00
2023-05-21T22:26:30.540Z,100.00
2023-05-21T22:28:59.052Z,100.00
2023-05-21T22:31:26.664Z,100.00
2023-05-21T22:33:53.189Z,100.00
2023-05-21T22:36:19.617Z,100.00
2023-05-21T22:38:46.228Z,100.00
2023-05-21T22:41:12.730Z,100.00
2023-05-21T22:43:39.289Z,100.00
2023-05-21T22:46:05.810Z,100.00
2023-05-21T22:48:34.327Z,100.00
2023-05-21T22:51:01.606Z,100.00
2023-05-21T22:53:28.214Z,100.00
2023-05-21T22:55:54.645Z,100.00
2023-05-21T22:58:21.113Z,100.00
2023-05-21T23:00:47.998Z,100.00
2023-05-21T23:03:14.938Z,100.00
2023-05-21T23:05:41.459Z,100.00
2023-05-21T23:08:08.109Z,100.00
2023-05-21T23:10:35.552Z,100.00
2023-05-21T23:13:02.090Z,100.00
2023-05-21T23:15:29.550Z,100.00
2023-05-21T23:17:56.838Z,100.00
2023-05-21T23:20:24.559Z,100.00
2023-05-21T23:22:51.076Z,100.00
2023-05-21T23:25:17.809Z,100.00
2023-05-21T23:27:44.359Z,100.00
2023-05-21T23:30:11.975Z,100.00
2023-05-21T23:32:38.527Z,100.00
2023-05-21T23:35:05.492Z,100.00
2023-05-21T23:37:31.987Z,100.00
2023-05-21T23:39:58.556Z,100.00
2023-05-21T23:42:25.024Z,100.00
2023-05-21T23:44:51.496Z,100.00
2023-05-21T23:47:18.069Z,100.00
2023-05-21T23:49:44.580Z,100.00
2023-05-21T23:52:13.042Z,100.00
2023-05-21T23:54:39.490Z,100.00
2023-05-21T23:57:06.303Z,100.00
2023-05-21T23:59:32.822Z,100.00
